Time;durP1;ratioP1;P1;durP2;ratioP2;P2;SDS_P1;SDS_P2;PMS_P1;PMS_P2;Temp;Humidity;BMP_temperature;BMP_pressure;BME280_temperature;BME280_humidity;BME280_pressure;Samples;Min_cycle;Max_cycle;Signal;HPM_P1;HPM_P2
2023/04/13 00:02:05;;;;;;;9.45;2.42;;;;;;;9.47;44.24;100357.28;5050626;28;20395;-75
2023/04/13 00:04:31;;;;;;;11.03;2.50;;;;;;;9.28;44.43;100354.06;5051662;28;20811;-75
2023/04/13 00:07:02;;;;;;;8.70;2.60;;;;;;;9.32;44.75;100352.72;5056088;28;20392;-77
2023/04/13 00:09:31;;;;;;;9.93;2.63;;;;;;;9.35;44.36;100346.28;5054228;28;20412;-76
2023/04/13 00:11:57;;;;;;;8.73;2.38;;;;;;;9.37;44.08;100344.28;5053830;28;20408;-76
2023/04/13 00:14:26;;;;;;;9.73;2.45;;;;;;;9.38;44.19;100346.75;5052785;28;20372;-77
2023/04/13 00:16:52;;;;;;;9.90;2.67;;;;;;;9.44;43.92;100349.72;5054220;28;20404;-76
2023/04/13 00:19:17;;;;;;;9.40;2.50;;;;;;;9.43;44.12;100350.72;5054096;28;20809;-76
2023/04/13 00:21:43;;;;;;;9.03;2.50;;;;;;;9.45;43.79;100348.72;5054286;28;20714;-75
2023/04/13 00:24:09;;;;;;;10.03;2.67;;;;;;;9.42;44.04;100351.69;5055219;28;20453;-75
2023/04/13 00:26:34;;;;;;;10.70;2.90;;;;;;;9.36;44.07;100356.69;5053962;28;20407;-76
2023/04/13 00:29:00;;;;;;;14.07;3.10;;;;;;;9.34;44.64;100350.72;5053347;28;20389;-76
2023/04/13 00:31:25;;;;;;;11.63;2.83;;;;;;;9.42;43.88;100349.03;5053680;28;20383;-77
2023/04/13 00:33:51;;;;;;;10.40;2.90;;;;;;;9.34;44.25;100353.38;5053829;28;20760;-77
2023/04/13 00:36:16;;;;;;;10.53;2.70;;;;;;;9.34;44.20;100348.06;5053655;28;20788;-75
2023/04/13 00:38:45;;;;;;;10.87;2.93;;;;;;;9.38;44.08;100359.13;5053583;28;20373;-75
2023/04/13 00:41:14;;;;;;;11.15;2.50;;;;;;;9.37;44.06;100354.88;5053561;28;20446;-75
2023/04/13 00:43:39;;;;;;;12.27;3.03;;;;;;;9.43;43.52;100361.28;5053191;28;20951;-75
2023/04/13 00:46:05;;;;;;;13.80;3.23;;;;;;;9.36;43.68;100354.06;5053423;28;20877;-75
2023/04/13 00:48:33;;;;;;;11.35;2.80;;;;;;;9.36;43.60;100350.56;5052909;28;20400;-75
2023/04/13 00:50:58;;;;;;;8.53;2.60;;;;;;;9.44;43.29;100357.66;5052749;28;20732;-76
2023/04/13 00:53:24;;;;;;;9.47;2.63;;;;;;;9.45;43.65;100356.66;5052581;28;20421;-74
2023/04/13 00:55:51;;;;;;;10.23;2.78;;;;;;;9.35;43.24;100354.22;5052735;28;20400;-75
2023/04/13 00:58:17;;;;;;;8.40;2.70;;;;;;;9.38;43.00;100345.91;5052571;28;20449;-74
2023/04/13 01:00:42;;;;;;;10.23;2.90;;;;;;;9.45;43.55;100349.53;5041122;28;20391;-75
2023/04/13 01:03:08;;;;;;;11.00;2.87;;;;;;;9.43;42.86;100330.34;5047812;28;20393;-75
2023/04/13 01:06:16;;;;;;;10.85;2.88;;;;;;;9.37;43.03;100344.28;5045145;28;20526;-75
2023/04/13 01:08:54;;;;;;;9.68;3.05;;;;;;;9.39;43.14;100344.94;5034762;28;20406;-75
2023/04/13 01:11:42;;;;;;;10.40;2.73;;;;;;;9.30;42.88;100338.84;5051533;28;20392;-75
2023/04/13 01:14:26;;;;;;;7.82;2.50;;;;;;;9.29;43.02;100357.53;5042638;28;20444;-75
2023/04/13 01:17:01;;;;;;;6.80;2.45;;;;;;;9.28;43.47;100346.13;5030513;28;20444;-75
2023/04/13 01:19:44;;;;;;;11.25;2.90;;;;;;;9.25;43.27;100357.03;5031926;28;20370;-75
2023/04/13 01:22:13;;;;;;;11.30;2.92;;;;;;;9.23;42.74;100348.44;5032127;28;20386;-75
2023/04/13 01:25:16;;;;;;;11.38;2.80;;;;;;;9.21;43.38;100350.44;5031696;28;20367;-74
2023/04/13 01:28:06;;;;;;;9.40;3.00;;;;;;;9.18;43.02;100338.41;5031050;28;20874;-75
2023/04/13 01:30:33;;;;;;;12.23;3.08;;;;;;;9.08;43.60;100350.97;5031102;28;20406;-74
2023/04/13 01:33:01;;;;;;;8.38;2.50;;;;;;;9.02;43.75;100349.03;5032226;28;20940;-75
2023/04/13 01:35:28;;;;;;;9.93;2.97;;;;;;;8.90;43.82;100345.09;5030997;28;20386;-75
2023/04/13 01:37:56;;;;;;;11.25;2.78;;;;;;;8.92;43.63;100357.13;5032163;28;20370;-75
2023/04/13 01:40:24;;;;;;;8.48;2.60;;;;;;;8.89;44.07;100352.16;5031974;28;20386;-75
2023/04/13 01:42:51;;;;;;;9.90;2.90;;;;;;;8.88;43.79;100347.88;5032257;28;20378;-75
2023/04/13 01:45:26;;;;;;;9.23;2.85;;;;;;;8.76;44.19;100362.44;5031984;28;20402;-75
2023/04/13 01:48:03;;;;;;;8.00;2.67;;;;;;;8.75;44.46;100356.34;5031876;28;20445;-75
2023/04/13 01:50:37;;;;;;;11.45;2.67;;;;;;;8.72;44.13;100363.78;5031860;28;20405;-75
2023/04/13 01:53:07;;;;;;;8.13;2.78;;;;;;;8.70;44.58;100358.66;5033575;28;20421;-75
2023/04/13 01:55:38;;;;;;;9.70;2.70;;;;;;;8.66;43.92;100356.50;5031565;28;20386;-75
2023/04/13 01:58:07;;;;;;;8.90;2.80;;;;;;;8.65;44.55;100360.13;5031853;28;20378;-75
2023/04/13 02:00:35;;;;;;;8.50;3.17;;;;;;;8.57;44.29;100356.50;5031687;28;20374;-76
2023/04/13 02:03:08;;;;;;;10.98;3.15;;;;;;;8.57;44.56;100356.50;5042399;28;20384;-75
2023/04/13 02:05:35;;;;;;;8.43;2.95;;;;;;;8.57;44.72;100371.50;5051753;28;20710;-76
2023/04/13 02:08:05;;;;;;;11.55;2.92;;;;;;;8.44;44.83;100368.56;5052816;28;20384;-75
2023/04/13 02:10:33;;;;;;;9.98;3.00;;;;;;;8.36;45.02;100374.63;5052455;28;20411;-76
2023/04/13 02:12:59;;;;;;;14.55;3.65;;;;;;;8.26;45.09;100366.03;5051446;28;20725;-76
2023/04/13 02:15:25;;;;;;;12.43;4.00;;;;;;;8.19;45.36;100377.25;5051167;28;20373;-76
2023/04/13 02:17:51;;;;;;;12.35;3.50;;;;;;;8.24;45.02;100374.94;5045632;28;20412;-76
2023/04/13 02:20:17;;;;;;;10.50;2.97;;;;;;;8.28;45.23;100382.53;5032022;28;20385;-76
2023/04/13 02:22:44;;;;;;;10.77;3.03;;;;;;;8.29;44.83;100371.81;5035675;28;20384;-76
2023/04/13 02:25:10;;;;;;;12.83;3.10;;;;;;;8.18;45.04;100372.94;5042385;28;20448;-76
2023/04/13 02:27:37;;;;;;;10.05;2.72;;;;;;;8.06;45.24;100370.78;5041671;28;20388;-76
2023/04/13 02:30:05;;;;;;;12.38;3.30;;;;;;;8.01;45.35;100373.91;5039656;28;20404;-75
2023/04/13 02:32:31;;;;;;;11.20;2.95;;;;;;;7.87;45.84;100370.09;5037406;28;20408;-75
2023/04/13 02:34:58;;;;;;;15.77;4.47;;;;;;;7.93;45.86;100373.91;5042219;28;20377;-76
2023/04/13 02:37:24;;;;;;;11.60;3.67;;;;;;;7.83;46.04;100384.56;5044970;28;20858;-75
2023/04/13 02:39:49;;;;;;;8.83;2.83;;;;;;;7.97;45.52;100375.22;5044580;28;20387;-76
2023/04/13 02:42:15;;;;;;;10.37;3.13;;;;;;;8.03;45.29;100372.75;5049904;28;20384;-76
2023/04/13 02:44:40;;;;;;;8.30;2.95;;;;;;;8.01;45.35;100374.75;5034607;28;20393;-75
2023/04/13 02:47:06;;;;;;;12.73;3.63;;;;;;;7.93;45.24;100368.63;5049677;28;20799;-76
2023/04/13 02:49:32;;;;;;;12.20;3.67;;;;;;;7.95;45.44;100374.56;5046033;28;20415;-76
2023/04/13 02:51:57;;;;;;;14.50;4.23;;;;;;;7.84;45.51;100362.47;5037843;28;20397;-76
2023/04/13 02:54:23;;;;;;;10.00;3.47;;;;;;;7.84;45.73;100376.50;5046975;28;20412;-76
2023/04/13 02:56:49;;;;;;;10.82;3.15;;;;;;;7.80;45.65;100371.72;5035422;28;20400;-76
2023/04/13 02:59:15;;;;;;;10.60;3.00;;;;;;;7.90;45.39;100380.31;5042943;28;20389;-76
2023/04/13 03:01:40;;;;;;;10.60;2.90;;;;;;;7.85;45.82;100390.53;5030924;28;20432;-76
2023/04/13 03:04:07;;;;;;;10.73;2.97;;;;;;;7.87;45.57;100382.44;5045884;28;20425;-76
2023/04/13 03:06:32;;;;;;;9.40;2.90;;;;;;;7.96;45.42;100378.81;5046827;28;20479;-75
2023/04/13 03:08:58;;;;;;;8.43;2.83;;;;;;;7.90;45.62;100371.56;5035799;28;20467;-75
2023/04/13 03:11:24;;;;;;;6.53;3.05;;;;;;;7.79;45.77;100381.44;5045287;28;20397;-77
2023/04/13 03:13:53;;;;;;;5.60;2.83;;;;;;;7.79;45.97;100389.34;5043646;28;20491;-76
2023/04/13 03:16:19;;;;;;;8.18;3.03;;;;;;;7.92;45.45;100382.78;5047858;28;20765;-76
2023/04/13 03:18:45;;;;;;;8.23;2.57;;;;;;;7.93;45.46;100385.28;5048461;28;20397;-77
2023/04/13 03:21:11;;;;;;;8.07;2.73;;;;;;;7.95;45.47;100385.94;5040881;28;20392;-76
2023/04/13 03:23:37;;;;;;;6.93;2.65;;;;;;;7.96;45.23;100392.88;5043408;28;20390;-76
2023/04/13 03:26:03;;;;;;;7.73;2.60;;;;;;;7.98;45.51;100392.72;5045187;28;20388;-75
2023/04/13 03:28:28;;;;;;;5.90;2.40;;;;;;;7.98;45.33;100390.91;5034369;28;20393;-76
2023/04/13 03:30:54;;;;;;;9.80;2.57;;;;;;;7.95;45.25;100393.03;5045791;28;20410;-76
2023/04/13 03:33:20;;;;;;;7.25;2.50;;;;;;;7.96;45.29;100381.47;5041554;28;20388;-76
2023/04/13 03:35:46;;;;;;;9.95;5.18;;;;;;;8.07;45.02;100401.47;5041841;28;20417;-75
2023/04/13 03:38:11;;;;;;;8.55;2.63;;;;;;;8.08;45.27;100398.66;5054654;28;20416;-76
2023/04/13 03:40:37;;;;;;;8.73;2.45;;;;;;;8.11;44.81;100397.53;5059899;28;21062;-77
2023/04/13 03:43:02;;;;;;;5.43;2.37;;;;;;;8.07;45.13;100393.53;5040318;28;20865;-76
2023/04/13 03:45:28;;;;;;;5.80;2.27;;;;;;;8.06;44.79;100390.09;5043854;28;20859;-77
2023/04/13 03:47:53;;;;;;;7.40;2.45;;;;;;;8.06;44.92;100402.47;5046303;28;20376;-77
2023/04/13 03:50:19;;;;;;;9.13;2.63;;;;;;;8.09;44.92;100400.31;5062131;28;20408;-76
2023/04/13 03:52:44;;;;;;;9.43;2.50;;;;;;;8.13;44.93;100401.66;5046137;28;20489;-76
2023/04/13 03:55:10;;;;;;;6.40;2.23;;;;;;;8.07;44.57;100402.31;5049778;28;20766;-76
2023/04/13 03:57:36;;;;;;;9.00;2.88;;;;;;;8.09;44.70;100395.03;5042358;28;20388;-76
2023/04/13 04:00:02;;;;;;;7.15;2.60;;;;;;;8.01;45.01;100401.13;5040920;28;20813;-76
2023/04/13 04:02:28;;;;;;;8.60;2.80;;;;;;;8.06;45.01;100402.47;5037233;28;20409;-76
2023/04/13 04:04:53;;;;;;;6.27;2.10;;;;;;;7.97;44.93;100393.69;5042456;28;20388;-77
2023/04/13 04:07:22;;;;;;;5.28;2.15;;;;;;;7.99;44.61;100400.44;5044331;28;20774;-75
2023/04/13 04:09:47;;;;;;;9.70;2.50;;;;;;;8.07;44.82;100410.22;5040920;28;21039;-74
2023/04/13 04:12:13;;;;;;;11.50;3.60;;;;;;;8.08;44.96;100406.59;5044241;28;20890;-74
2023/04/13 04:14:38;;;;;;;9.70;3.70;;;;;;;8.12;44.88;100407.94;5040181;28;20390;-75
2023/04/13 04:17:04;;;;;;;9.93;3.35;;;;;;;8.21;44.65;100408.75;5043273;28;20769;-76
2023/04/13 04:19:29;;;;;;;8.90;3.00;;;;;;;8.17;44.60;100407.44;5044013;28;20438;-75
2023/04/13 04:21:56;;;;;;;7.73;3.00;;;;;;;8.27;44.77;100416.03;5044593;28;20416;-76
2023/04/13 04:24:22;;;;;;;11.18;3.30;;;;;;;8.37;44.50;100415.88;5045153;28;20473;-76
2023/04/13 04:26:53;;;;;;;8.50;2.53;;;;;;;8.37;44.11;100413.25;5045745;28;20396;-76
2023/04/13 04:29:32;;;;;;;9.90;2.97;;;;;;;8.33;44.73;100423.31;5044652;28;20405;-78
2023/04/13 04:31:58;;;;;;;12.68;3.17;;;;;;;8.35;44.36;100426.59;5042576;28;20387;-76
2023/04/13 04:34:24;;;;;;;8.32;2.38;;;;;;;8.37;44.53;100429.94;5040902;28;20391;-76
2023/04/13 04:36:50;;;;;;;12.45;2.90;;;;;;;8.56;43.90;100430.66;5043775;28;20462;-76
2023/04/13 04:39:21;;;;;;;10.77;2.30;;;;;;;8.42;43.94;100434.75;5043808;28;20888;-75
2023/04/13 04:41:53;;;;;;;9.80;2.10;;;;;;;8.44;44.47;100439.88;5038683;28;20448;-76
2023/04/13 04:44:29;;;;;;;8.10;2.20;;;;;;;8.20;44.78;100436.16;5042273;28;20456;-75
2023/04/13 04:46:57;;;;;;;7.03;2.03;;;;;;;8.30;45.02;100434.22;5049990;28;20403;-75
2023/04/13 04:49:24;;;;;;;11.88;2.50;;;;;;;8.48;44.30;100431.47;5041596;28;20406;-76
2023/04/13 04:51:50;;;;;;;9.38;2.22;;;;;;;8.52;44.63;100438.06;5049002;28;20389;-75
2023/04/13 04:54:17;;;;;;;9.97;2.40;;;;;;;8.51;44.38;100435.59;5035560;28;20437;-75
2023/04/13 04:56:44;;;;;;;9.85;3.13;;;;;;;8.71;44.40;100431.63;5037017;28;20390;-76
2023/04/13 04:59:10;;;;;;;15.30;3.40;;;;;;;8.97;43.50;100433.31;5047913;28;20446;-75
2023/04/13 05:01:35;;;;;;;9.40;3.40;;;;;;;9.11;43.34;100434.41;5052702;28;20429;-75
2023/04/13 05:04:00;;;;;;;6.55;2.28;;;;;;;9.20;43.19;100441.38;5040071;28;20421;-76
2023/04/13 05:06:31;;;;;;;7.50;3.00;;;;;;;9.38;42.93;100446.44;5048984;28;20906;-75
2023/04/13 05:08:57;;;;;;;12.75;3.55;;;;;;;9.65;42.95;100444.41;5051334;28;20389;-75
2023/04/13 05:11:22;;;;;;;8.48;2.67;;;;;;;9.76;42.46;100444.84;5048201;28;20420;-75
2023/04/13 05:13:48;;;;;;;8.38;2.50;;;;;;;9.87;42.45;100435.72;5043484;28;20705;-76
2023/04/13 05:16:14;;;;;;;10.30;2.60;;;;;;;9.98;42.01;100431.88;5051880;28;20376;-75
2023/04/13 05:18:46;;;;;;;9.40;3.10;;;;;;;10.12;41.92;100430.31;5033258;28;20843;-75
2023/04/13 05:21:13;;;;;;;10.90;3.72;;;;;;;10.37;41.60;100438.97;5031257;28;20378;-75
2023/04/13 05:23:39;;;;;;;8.65;2.60;;;;;;;10.38;40.95;100445.91;5031903;28;20489;-76
2023/04/13 05:26:05;;;;;;;10.97;2.70;;;;;;;10.33;41.36;100443.81;5035294;28;20478;-76
2023/04/13 05:28:33;;;;;;;11.15;2.80;;;;;;;10.48;41.69;100443.84;5033223;28;20393;-75
2023/04/13 05:31:07;;;;;;;9.02;3.38;;;;;;;10.62;41.29;100438.78;5045933;28;20414;-76
2023/04/13 05:33:33;;;;;;;9.82;3.58;;;;;;;10.69;41.70;100432.59;5034821;28;20396;-75
2023/04/13 05:36:00;;;;;;;10.55;3.50;;;;;;;10.80;42.30;100427.88;5035832;28;20386;-76
2023/04/13 05:38:25;;;;;;;10.27;3.13;;;;;;;11.02;42.75;100423.53;5032440;28;20904;-76
2023/04/13 05:40:52;;;;;;;8.95;3.17;;;;;;;11.28;42.57;100433.75;5043667;28;20381;-76
2023/04/13 05:43:19;;;;;;;7.93;3.30;;;;;;;11.44;42.56;100432.75;5042733;28;20866;-76
2023/04/13 05:45:45;;;;;;;13.93;3.38;;;;;;;11.56;42.88;100438.41;5048836;28;20393;-76
2023/04/13 05:48:10;;;;;;;10.77;3.20;;;;;;;11.62;42.54;100438.50;5043500;28;20394;-77
2023/04/13 05:50:36;;;;;;;9.30;2.97;;;;;;;11.72;41.87;100438.25;5045411;28;20421;-76
2023/04/13 05:53:04;;;;;;;12.63;3.47;;;;;;;11.77;42.31;100440.34;5042357;28;20418;-76
2023/04/13 05:55:29;;;;;;;7.32;2.50;;;;;;;11.70;41.60;100431.47;5033904;28;20393;-76
2023/04/13 05:57:55;;;;;;;9.07;2.58;;;;;;;11.72;41.67;100432.09;5032469;28;20394;-77
2023/04/13 06:00:21;;;;;;;9.07;2.83;;;;;;;11.82;41.20;100424.69;5031787;28;20389;-76
2023/04/13 06:02:50;;;;;;;8.13;3.30;;;;;;;11.98;41.01;100434.31;5033656;28;20390;-78
2023/04/13 06:05:19;;;;;;;9.98;3.30;;;;;;;12.14;40.99;100420.00;5032285;28;20455;-76
2023/04/13 06:07:46;;;;;;;7.25;3.20;;;;;;;12.34;40.49;100410.38;5032313;28;20471;-76
2023/04/13 06:10:15;;;;;;;15.02;4.10;;;;;;;12.49;40.27;100425.44;5036711;28;20488;-76
2023/04/13 06:12:41;;;;;;;8.80;3.78;;;;;;;12.63;40.20;100421.91;5033746;28;20399;-76
2023/04/13 06:15:08;;;;;;;14.75;8.63;;;;;;;12.55;40.28;100420.22;5033517;28;20866;-78
2023/04/13 06:17:33;;;;;;;9.27;3.70;;;;;;;12.73;40.24;100409.13;5035852;28;20434;-75
2023/04/13 06:19:59;;;;;;;7.40;3.00;;;;;;;12.95;39.81;100417.06;5040231;28;20390;-76
2023/04/13 06:22:24;;;;;;;10.23;3.00;;;;;;;12.99;39.57;100407.69;5035630;28;20389;-78
2023/04/13 06:24:53;;;;;;;5.60;2.80;;;;;;;13.11;39.69;100408.78;5037095;28;20391;-75
2023/04/13 06:27:18;;;;;;;7.93;2.58;;;;;;;13.28;39.78;100411.16;5042158;28;20899;-75
2023/04/13 06:29:44;;;;;;;6.30;2.40;;;;;;;13.52;39.32;100408.06;5039522;28;20879;-76
2023/04/13 06:32:10;;;;;;;7.77;2.33;;;;;;;13.62;38.59;100409.53;5052240;28;20939;-76
2023/04/13 06:34:36;;;;;;;6.50;2.47;;;;;;;13.66;38.31;100422.25;5046585;28;20389;-75
2023/04/13 06:37:02;;;;;;;9.68;2.42;;;;;;;13.51;38.29;100406.41;5039478;28;20394;-76
2023/04/13 06:39:28;;;;;;;10.02;2.40;;;;;;;13.45;38.29;100403.69;5037379;28;20376;-75
2023/04/13 06:41:55;;;;;;;5.90;2.13;;;;;;;13.50;38.16;100410.06;5037465;28;20418;-76
2023/04/13 06:44:20;;;;;;;9.82;2.83;;;;;;;13.70;38.00;100398.69;5039499;28;20391;-77
2023/04/13 06:46:46;;;;;;;7.80;2.45;;;;;;;13.95;37.66;100415.84;5045543;28;20384;-77
2023/04/13 06:49:12;;;;;;;9.37;2.43;;;;;;;14.11;37.52;100419.16;5050589;28;20442;-76
2023/04/13 06:51:37;;;;;;;7.77;2.10;;;;;;;14.22;37.41;100405.22;5043743;28;20389;-75
2023/04/13 06:54:03;;;;;;;8.47;2.20;;;;;;;14.31;37.04;100401.38;5038495;28;20416;-76
2023/04/13 06:56:29;;;;;;;9.23;2.10;;;;;;;14.29;37.11;100403.41;5038908;28;20397;-75
2023/04/13 06:59:00;;;;;;;5.80;2.10;;;;;;;14.40;36.72;100404.66;5053268;28;20448;-76
2023/04/13 07:01:26;;;;;;;7.90;2.30;;;;;;;14.45;36.81;100410.22;5037739;28;20866;-75
2023/04/13 07:03:52;;;;;;;9.80;2.58;;;;;;;14.63;36.76;100408.84;5043665;28;20384;-78
2023/04/13 07:06:18;;;;;;;11.33;2.27;;;;;;;14.81;36.39;100409.03;5031550;28;20378;-76
2023/04/13 07:08:43;;;;;;;8.70;2.27;;;;;;;14.99;35.69;100410.28;5037876;28;20446;-76
2023/04/13 07:11:09;;;;;;;11.27;2.50;;;;;;;14.96;35.85;100413.34;5051487;28;20419;-76
2023/04/13 07:13:35;;;;;;;5.57;2.00;;;;;;;14.98;35.68;100404.13;5045771;28;20470;-75
2023/04/13 07:16:00;;;;;;;9.00;2.20;;;;;;;14.88;35.74;100412.53;5039883;28;20456;-75
2023/04/13 07:18:26;;;;;;;5.93;2.00;;;;;;;15.09;35.91;100416.03;5035320;28;20886;-75
2023/04/13 07:20:51;;;;;;;8.65;2.33;;;;;;;15.24;35.98;100403.25;5041398;28;20390;-76
2023/04/13 07:23:17;;;;;;;7.23;2.13;;;;;;;15.43;35.80;100408.75;5036704;28;20883;-75
2023/04/13 07:25:43;;;;;;;9.05;2.05;;;;;;;15.60;34.70;100399.25;5034113;28;20463;-76
2023/04/13 07:28:09;;;;;;;8.13;2.38;;;;;;;15.71;35.19;100396.97;5035317;28;20540;-77
2023/04/13 07:30:34;;;;;;;9.67;2.70;;;;;;;15.93;35.52;100394.84;5042045;28;20415;-79
2023/04/13 07:33:00;;;;;;;10.07;2.53;;;;;;;16.02;35.41;100399.72;5043806;28;20905;-76
2023/04/13 07:35:26;;;;;;;17.35;3.08;;;;;;;16.18;35.15;100411.78;5034379;28;20394;-77
2023/04/13 07:37:52;;;;;;;6.00;2.55;;;;;;;16.32;34.81;100414.38;5030995;28;20386;-76
2023/04/13 07:40:17;;;;;;;8.33;2.57;;;;;;;16.39;34.51;100404.47;5032463;28;20943;-76
2023/04/13 07:42:44;;;;;;;8.33;3.33;;;;;;;16.34;34.77;100398.94;5029558;28;20889;-77
2023/04/13 07:45:10;;;;;;;7.82;2.90;;;;;;;16.34;34.88;100401.59;5035748;28;20405;-76
2023/04/13 07:47:36;;;;;;;11.90;2.73;;;;;;;16.43;35.44;100393.09;5038550;28;20459;-76
2023/04/13 07:50:01;;;;;;;7.63;2.33;;;;;;;16.56;35.45;100402.88;5033466;28;20449;-77
2023/04/13 07:52:27;;;;;;;10.57;2.70;;;;;;;16.70;35.65;100403.59;5044082;28;20408;-76
2023/04/13 07:54:53;;;;;;;8.27;2.45;;;;;;;16.70;35.60;100394.78;5045137;28;20897;-76
2023/04/13 07:57:21;;;;;;;12.77;2.97;;;;;;;16.71;35.85;100391.88;5047055;28;21329;-78
2023/04/13 07:59:46;;;;;;;8.30;2.38;;;;;;;16.72;35.83;100392.69;5038692;28;20429;-76
2023/04/13 08:02:12;;;;;;;8.75;2.50;;;;;;;16.65;36.15;100397.28;5048253;28;20415;-76
2023/04/13 08:04:38;;;;;;;11.20;2.33;;;;;;;16.73;35.95;100397.81;5041533;28;20383;-76
2023/04/13 08:07:04;;;;;;;16.02;3.30;;;;;;;16.86;35.69;100391.56;5046153;28;20784;-77
2023/04/13 08:09:39;;;;;;;8.30;2.30;;;;;;;16.92;35.47;100395.22;5043819;28;20782;-76
2023/04/13 08:12:05;;;;;;;7.70;2.45;;;;;;;16.93;35.32;100396.88;5047897;28;20389;-75
2023/04/13 08:14:30;;;;;;;11.23;2.72;;;;;;;16.98;35.26;100384.47;5041611;28;20438;-77
2023/04/13 08:16:56;;;;;;;8.85;2.38;;;;;;;17.05;35.30;100386.25;5038220;28;20383;-76
2023/04/13 08:19:22;;;;;;;13.60;2.85;;;;;;;17.03;35.15;100385.66;5048052;28;20467;-74
2023/04/13 08:21:49;;;;;;;9.03;2.40;;;;;;;17.07;35.04;100382.31;5041599;28;20401;-75
2023/04/13 08:24:14;;;;;;;11.90;2.75;;;;;;;17.02;34.91;100370.66;5032998;28;20403;-76
2023/04/13 08:26:40;;;;;;;9.05;2.45;;;;;;;17.13;35.07;100375.25;5044135;28;20388;-76
2023/04/13 08:29:05;;;;;;;8.70;2.33;;;;;;;17.14;35.12;100377.72;5041128;28;20401;-76
2023/04/13 08:31:31;;;;;;;9.00;2.28;;;;;;;17.22;34.91;100379.28;5040052;28;20443;-76
2023/04/13 08:33:57;;;;;;;12.57;2.73;;;;;;;17.33;34.90;100373.19;5045595;28;20476;-77
2023/04/13 08:36:22;;;;;;;12.85;5.40;;;;;;;17.48;34.75;100380.84;5035365;28;20422;-77
2023/04/13 08:38:48;;;;;;;35.13;31.33;;;;;;;17.55;34.60;100380.78;5044701;28;20478;-75
2023/04/13 08:41:16;;;;;;;89.22;41.80;;;;;;;17.68;34.52;100377.94;5040062;28;20386;-77
2023/04/13 08:43:41;;;;;;;213.05;72.97;;;;;;;17.81;34.16;100381.47;5049059;28;20394;-76
2023/04/13 08:46:07;;;;;;;3.60;1.73;;;;;;;17.86;33.64;100378.97;5035939;28;20395;-77
2023/04/13 08:48:34;;;;;;;5.63;1.80;;;;;;;17.58;33.50;100380.34;5058684;28;20405;-76
2023/04/13 08:51:00;;;;;;;5.90;1.80;;;;;;;17.61;33.73;100371.84;5047887;28;20556;-77
2023/04/13 08:53:27;;;;;;;4.30;1.45;;;;;;;17.79;33.78;100371.00;5033431;28;20497;-77
2023/04/13 08:55:54;;;;;;;12.15;2.30;;;;;;;17.84;33.35;100381.84;5033694;28;20503;-78
2023/04/13 08:58:23;;;;;;;6.80;1.88;;;;;;;17.89;33.29;100382.03;5035527;28;20393;-77
2023/04/13 09:00:49;;;;;;;6.57;1.73;;;;;;;17.88;33.07;100363.47;5045948;28;20430;-78
2023/04/13 09:03:22;;;;;;;5.90;1.77;;;;;;;18.03;32.97;100363.09;5039153;28;20814;-77
2023/04/13 09:05:53;;;;;;;2.90;1.50;;;;;;;18.04;32.67;100357.50;5051207;28;20478;-76
2023/04/13 09:08:20;;;;;;;3.63;1.40;;;;;;;17.92;31.82;100354.75;5046514;28;20398;-78
2023/04/13 09:10:45;;;;;;;9.38;2.17;;;;;;;17.98;32.26;100354.91;5043271;28;20498;-76
2023/04/13 09:13:11;;;;;;;8.20;1.92;;;;;;;18.18;32.35;100346.56;5039523;28;20489;-76
2023/04/13 09:15:37;;;;;;;9.17;2.10;;;;;;;18.33;32.29;100345.09;5038679;28;20855;-77
2023/04/13 09:18:09;;;;;;;6.53;1.70;;;;;;;18.33;31.89;100337.03;5043754;28;20379;-76
2023/04/13 09:20:36;;;;;;;6.63;1.90;;;;;;;18.48;31.12;100344.66;5044971;28;20454;-76
2023/04/13 09:23:13;;;;;;;9.02;2.08;;;;;;;18.35;30.11;100336.81;5032820;28;20378;-77
2023/04/13 09:25:39;;;;;;;10.85;2.20;;;;;;;18.48;30.00;100341.16;5039315;28;20837;-77
2023/04/13 09:28:04;;;;;;;9.27;2.10;;;;;;;18.59;29.60;100343.03;5053035;28;20390;-77
2023/04/13 09:30:30;;;;;;;9.93;2.10;;;;;;;18.54;29.42;100337.53;5052557;28;20793;-76
2023/04/13 09:33:06;;;;;;;12.40;2.23;;;;;;;18.57;28.71;100331.69;5053806;28;20386;-77
2023/04/13 09:35:33;;;;;;;6.80;1.77;;;;;;;18.57;29.07;100336.25;5052938;28;20380;-76
2023/04/13 09:37:59;;;;;;;7.93;2.15;;;;;;;18.38;29.01;100333.66;5052516;28;20385;-77
2023/04/13 09:40:28;;;;;;;4.53;1.93;;;;;;;18.15;28.92;100340.63;5052846;28;20447;-77
2023/04/13 09:42:57;;;;;;;9.75;2.25;;;;;;;18.22;29.26;100334.31;5052674;28;20415;-76
2023/04/13 09:45:23;;;;;;;8.53;2.10;;;;;;;18.58;29.31;100317.22;5052294;28;20377;-76
2023/04/13 09:47:48;;;;;;;7.43;2.10;;;;;;;18.87;28.91;100322.72;5052818;28;20910;-76
2023/04/13 09:50:20;;;;;;;6.77;1.90;;;;;;;19.06;28.83;100332.31;5053662;28;20455;-77
2023/04/13 09:52:46;;;;;;;5.97;1.67;;;;;;;18.90;28.34;100315.03;5051788;28;20409;-76
2023/04/13 09:55:18;;;;;;;7.15;1.80;;;;;;;18.90;28.66;100323.09;5053871;28;20385;-77
2023/04/13 09:57:43;;;;;;;9.82;1.80;;;;;;;19.09;28.72;100322.97;5059014;28;20407;-76
2023/04/13 10:00:19;;;;;;;8.37;1.43;;;;;;;19.17;28.43;100309.16;5060722;28;20377;-77
2023/04/13 10:02:48;;;;;;;8.40;1.60;;;;;;;19.02;28.30;100316.91;5068762;28;20825;-77
2023/04/13 10:05:14;;;;;;;5.10;1.45;;;;;;;19.16;28.73;100304.84;5051916;28;20377;-75
2023/04/13 10:07:43;;;;;;;9.03;1.80;;;;;;;18.96;28.42;100305.22;5051564;28;20387;-77
2023/04/13 10:10:10;;;;;;;12.95;2.28;;;;;;;18.85;28.37;100309.56;5052811;28;20415;-76
2023/04/13 10:12:40;;;;;;;6.20;1.60;;;;;;;19.15;28.65;100305.09;5051686;28;20376;-75
2023/04/13 10:15:24;;;;;;;8.30;1.83;;;;;;;19.39;28.54;100295.06;5051676;28;20753;-76
2023/04/13 10:18:11;;;;;;;14.68;2.83;;;;;;;19.61;28.80;100290.69;5052613;28;20876;-77
2023/04/13 10:20:38;;;;;;;12.55;2.55;;;;;;;19.51;28.27;100292.38;5051831;28;20365;-77
2023/04/13 10:23:05;;;;;;;8.80;1.92;;;;;;;19.39;28.17;100285.16;5051472;28;20377;-76
2023/04/13 10:25:31;;;;;;;11.77;2.15;;;;;;;19.38;28.18;100286.22;5051740;28;20391;-77
2023/04/13 10:27:57;;;;;;;5.30;1.50;;;;;;;19.43;28.16;100283.63;5051093;28;20853;-76
2023/04/13 10:30:23;;;;;;;6.35;1.58;;;;;;;19.52;28.21;100273.31;5050572;28;20397;-77
2023/04/13 10:33:04;;;;;;;6.82;1.45;;;;;;;19.52;28.00;100288.59;5051462;28;20472;-77
2023/04/13 10:35:33;;;;;;;14.05;2.75;;;;;;;19.74;28.28;100284.22;5051994;28;20372;-77
2023/04/13 10:37:58;;;;;;;11.45;1.90;;;;;;;19.65;27.82;100274.88;5051360;28;20464;-76
2023/04/13 10:40:24;;;;;;;7.50;2.17;;;;;;;19.73;27.81;100266.44;5051766;28;20464;-77
2023/04/13 10:42:50;;;;;;;12.40;1.83;;;;;;;19.78;27.87;100269.22;5053418;28;20379;-76
2023/04/13 10:45:27;;;;;;;9.70;1.90;;;;;;;19.86;27.78;100276.06;5051580;28;20369;-76
2023/04/13 10:47:53;;;;;;;10.90;1.92;;;;;;;19.95;28.10;100276.50;5052464;28;20376;-77
2023/04/13 10:50:26;;;;;;;7.82;2.30;;;;;;;19.96;27.96;100270.88;5052526;28;20413;-78
2023/04/13 10:52:55;;;;;;;12.48;5.65;;;;;;;20.07;29.32;100268.38;5032847;28;20402;-77
2023/04/13 10:55:23;;;;;;;5.88;1.80;;;;;;;20.12;28.49;100271.16;5039818;28;20506;-78
2023/04/13 10:57:48;;;;;;;8.02;2.22;;;;;;;19.99;27.89;100275.78;5044913;28;20421;-76
2023/04/13 11:00:20;;;;;;;8.27;1.70;;;;;;;20.04;27.40;100283.13;5038968;28;20439;-75
2023/04/13 11:02:51;;;;;;;9.35;1.73;;;;;;;20.10;27.66;100278.66;5041707;28;20382;-77
2023/04/13 11:05:19;;;;;;;18.77;2.58;;;;;;;20.21;27.84;100278.56;5041967;28;20399;-76
2023/04/13 11:07:47;;;;;;;12.40;2.58;;;;;;;20.12;27.16;100269.28;5040219;28;20401;-77
2023/04/13 11:10:12;;;;;;;7.75;1.52;;;;;;;20.03;26.62;100265.34;5054953;28;20434;-77
2023/04/13 11:12:39;;;;;;;8.60;1.70;;;;;;;19.92;26.72;100266.25;5038114;28;20802;-76
2023/04/13 11:15:07;;;;;;;5.28;1.67;;;;;;;20.11;26.94;100274.91;5040704;28;20844;-78
2023/04/13 11:17:32;;;;;;;7.55;2.20;;;;;;;19.94;26.61;100273.00;5038880;28;20389;-76
2023/04/13 11:20:00;;;;;;;8.25;1.95;;;;;;;20.14;27.35;100275.22;5035855;28;20380;-76
2023/04/13 11:22:34;;;;;;;7.17;1.90;;;;;;;20.01;27.20;100262.09;5041313;28;20405;-76
2023/04/13 11:25:09;;;;;;;13.68;3.30;;;;;;;20.18;27.15;100257.53;5038271;28;20469;-78
2023/04/13 11:27:36;;;;;;;11.52;1.85;;;;;;;20.29;27.32;100257.69;5041196;28;20411;-77
2023/04/13 11:30:08;;;;;;;7.50;1.73;;;;;;;20.36;27.12;100247.56;5041608;28;20876;-76